Terminal Aerodrome Forecast
Issued by NWS Bismarck, ND

Home | Current Version | Previous Version | Graphics & Text | Print | Product List | Glossary On
Versions: 1 2 3 4 5 6 7 8 9 10 11 12 13 14 15 16 17
000
FTUS43 KBIS 040521
TAFBIS
TAF
KBIS 040521Z 0406/0506 36005KT P6SM SKC
     FM041000 06005KT P6SM SCT200
     FM041500 14005KT P6SM SCT150
     FM042100 14007KT P6SM SCT100 BKN150
     FM050100 12005KT P6SM SCT080=

USA.gov is the U.S. government's official web portal to all federal, state and local government web resources and services.